Time;durP1;ratioP1;P1;durP2;ratioP2;P2;SDS_P1;SDS_P2;PMS_P1;PMS_P2;Temp;Humidity;BMP_temperature;BMP_pressure;BME280_temperature;BME280_humidity;BME280_pressure;Samples;Min_cycle;Max_cycle;Signal;HPM_P1;HPM_P2
2022/04/12 00:03:54;;;;;;;5.87;3.95;;;14.10;69.40;;;;;;10982038;32;20026;-70
2022/04/12 00:10:06;;;;;;;10.70;6.60;;;14.00;69.60;;;;;;10979346;32;20019;-70
2022/04/12 00:16:08;;;;;;;7.40;4.62;;;14.00;69.70;;;;;;10979181;32;20023;-70
2022/04/12 00:22:10;;;;;;;5.40;3.20;;;14.00;69.80;;;;;;10981785;32;20022;-69
2022/04/12 00:28:15;;;;;;;10.65;6.03;;;14.00;69.80;;;;;;10981363;32;20452;-72
2022/04/12 00:34:17;;;;;;;5.05;3.25;;;13.80;70.00;;;;;;10981096;32;20027;-72
2022/04/12 00:40:20;;;;;;;12.37;3.87;;;13.80;70.20;;;;;;10977255;32;20030;-72
2022/04/12 00:46:22;;;;;;;5.03;3.62;;;13.80;70.30;;;;;;10980155;32;20018;-72
2022/04/12 00:52:27;;;;;;;3.65;2.92;;;13.70;70.50;;;;;;10980797;32;20300;-72
2022/04/12 00:58:29;;;;;;;4.30;3.45;;;13.70;71.20;;;;;;10980490;32;20331;-72
2022/04/12 01:04:33;;;;;;;8.48;5.80;;;13.80;71.50;;;;;;10980467;32;20081;-72
2022/04/12 01:10:35;;;;;;;7.47;5.10;;;13.80;71.50;;;;;;10979826;32;20022;-72
2022/04/12 01:16:37;;;;;;;5.07;4.28;;;13.80;71.20;;;;;;10846316;27;20302;-72
2022/04/12 01:22:57;;;;;;;7.03;5.30;;;13.70;71.20;;;;;;10824067;33;20055;-72
2022/04/12 01:28:59;;;;;;;6.45;4.55;;;13.70;71.60;;;;;;10825064;33;20062;-72
2022/04/12 01:35:01;;;;;;;8.30;6.20;;;13.70;71.50;;;;;;10824813;33;20089;-73
2022/04/12 01:41:03;;;;;;;13.55;5.53;;;13.70;71.30;;;;;;10824536;33;20335;-73
2022/04/12 01:47:17;;;;;;;4.62;3.10;;;13.60;71.80;;;;;;10812947;32;20028;-72
2022/04/12 01:53:19;;;;;;;9.38;5.43;;;13.60;72.20;;;;;;10831014;33;20036;-72
2022/04/12 01:59:22;;;;;;;13.50;8.90;;;13.50;72.10;;;;;;10830360;33;20090;-69
2022/04/12 02:05:24;;;;;;;9.20;5.80;;;13.50;72.30;;;;;;10830197;33;20328;-70
2022/04/12 02:11:26;;;;;;;6.55;4.95;;;13.40;72.00;;;;;;10829966;33;20036;-70
2022/04/12 02:17:28;;;;;;;9.57;6.25;;;13.30;72.00;;;;;;10827208;33;20028;-70
2022/04/12 02:23:30;;;;;;;14.27;5.05;;;13.30;72.10;;;;;;10829707;32;20031;-69
2022/04/12 02:29:32;;;;;;;8.68;5.35;;;13.30;71.90;;;;;;10829333;33;20024;-70
2022/04/12 02:35:36;;;;;;;13.62;5.18;;;13.20;71.70;;;;;;10829273;33;20031;-70
2022/04/12 02:41:38;;;;;;;9.20;7.03;;;13.20;71.40;;;;;;10828047;33;20024;-70
2022/04/12 02:47:40;;;;;;;8.23;5.35;;;13.10;71.70;;;;;;10829030;33;20046;-69
2022/04/12 02:53:42;;;;;;;13.62;6.12;;;13.10;71.50;;;;;;10828761;33;20063;-70
2022/04/12 02:59:45;;;;;;;5.78;4.07;;;13.00;71.70;;;;;;10827895;32;20040;-70
2022/04/12 03:05:47;;;;;;;6.50;4.05;;;13.00;72.30;;;;;;10828402;33;20020;-70
2022/04/12 03:11:48;;;;;;;6.93;5.03;;;12.90;72.40;;;;;;10828377;33;20031;-70
2022/04/12 03:17:51;;;;;;;7.68;5.60;;;12.80;72.40;;;;;;10827953;33;20028;-70
2022/04/12 03:23:53;;;;;;;9.23;5.28;;;12.80;72.00;;;;;;10824765;33;20035;-70
2022/04/12 03:29:56;;;;;;;8.48;4.95;;;12.70;72.20;;;;;;10828054;32;20438;-70
2022/04/12 03:42:24;;;;;;;5.70;4.68;;;12.70;72.80;;;;;;10827520;33;20016;-69
2022/04/12 03:48:26;;;;;;;8.75;4.75;;;12.60;73.40;;;;;;10827260;33;20324;-70
2022/04/12 03:54:28;;;;;;;7.70;5.80;;;12.50;73.60;;;;;;10827043;33;20050;-70
2022/04/12 04:00:31;;;;;;;7.05;4.10;;;12.50;73.60;;;;;;10826720;33;20062;-70
2022/04/12 04:06:49;;;;;;;6.80;4.40;;;12.50;72.90;;;;;;10826874;33;20385;-69
2022/04/12 04:12:53;;;;;;;8.68;5.70;;;12.30;73.90;;;;;;10823691;32;20063;-69
2022/04/12 04:18:57;;;;;;;7.00;4.72;;;12.30;74.20;;;;;;10826017;33;20035;-70
2022/04/12 04:25:06;;;;;;;3.97;2.55;;;12.30;73.80;;;;;;10825035;33;20355;-70
2022/04/12 04:31:08;;;;;;;;;;;12.30;74.10;;;;;;10826078;33;20039;-69
2022/04/12 04:37:10;;;;;;;6.28;3.33;;;12.20;74.40;;;;;;10824929;33;19945;-70
2022/04/12 04:43:12;;;;;;;7.47;4.70;;;12.20;74.20;;;;;;10823601;33;20082;-70
2022/04/12 04:49:14;;;;;;;6.55;4.05;;;12.20;73.60;;;;;;10825354;33;20054;-70
2022/04/12 04:55:18;;;;;;;5.30;2.60;;;12.30;73.80;;;;;;10825307;32;20043;-70
2022/04/12 05:01:31;;;;;;;6.70;4.53;;;12.30;73.70;;;;;;10825145;33;20054;-70
2022/04/12 05:07:33;;;;;;;8.65;4.22;;;12.40;73.90;;;;;;10824929;33;20052;-70
2022/04/12 05:13:35;;;;;;;7.05;4.37;;;12.50;73.30;;;;;;10824758;33;20028;-70
2022/04/12 05:19:44;;;;;;;6.68;3.87;;;12.70;73.50;;;;;;10820475;33;20028;-70
2022/04/12 05:25:46;;;;;;;6.35;3.30;;;12.80;73.50;;;;;;10824227;32;20020;-70
2022/04/12 05:31:48;;;;;;;5.72;3.33;;;12.90;73.60;;;;;;10819962;33;20054;-70
2022/04/12 05:37:54;;;;;;;5.97;3.67;;;13.00;73.80;;;;;;10823636;33;20029;-70
2022/04/12 05:44:36;;;;;;;6.43;3.87;;;13.20;73.60;;;;;;10823664;33;20032;-70
2022/04/12 05:50:39;;;;;;;6.62;4.10;;;13.30;72.70;;;;;;10823857;33;20177;-69
2022/04/12 05:56:41;;;;;;;5.53;3.87;;;13.40;72.70;;;;;;10823610;33;20331;-70
2022/04/12 06:02:44;;;;;;;7.10;3.97;;;13.30;72.90;;;;;;10820695;33;20383;-70
2022/04/12 06:08:46;;;;;;;4.15;2.45;;;13.50;73.20;;;;;;10821464;33;20032;-70
2022/04/12 06:14:48;;;;;;;7.95;4.60;;;13.60;73.00;;;;;;10802222;33;20066;-70
2022/04/12 06:20:50;;;;;;;5.40;3.08;;;13.70;72.60;;;;;;10818685;33;20032;-72
2022/04/12 06:26:52;;;;;;;4.97;3.70;;;13.60;72.30;;;;;;10824711;33;20086;-71
2022/04/12 06:32:54;;;;;;;4.32;3.87;;;13.70;73.00;;;;;;10820825;32;20050;-72
2022/04/12 06:38:57;;;;;;;5.90;3.75;;;13.70;72.10;;;;;;10826633;33;20024;-71
2022/04/12 06:44:59;;;;;;;7.30;4.50;;;13.60;73.10;;;;;;10829573;33;20376;-72
2022/04/12 06:51:01;;;;;;;7.10;5.32;;;13.60;73.00;;;;;;10827502;33;20024;-71
2022/04/12 06:57:03;;;;;;;5.43;3.17;;;13.60;73.20;;;;;;10825158;33;20063;-72
2022/04/12 07:03:05;;;;;;;7.85;4.90;;;13.70;73.50;;;;;;10829480;33;20012;-72
2022/04/12 07:09:10;;;;;;;7.12;3.90;;;13.80;73.30;;;;;;10829355;33;20023;-72
2022/04/12 07:15:14;;;;;;;10.23;5.55;;;13.70;73.80;;;;;;10829132;33;20426;-72
2022/04/12 07:21:21;;;;;;;10.48;5.80;;;13.80;74.00;;;;;;10812991;33;20024;-72
2022/04/12 07:27:23;;;;;;;7.50;4.97;;;13.80;74.10;;;;;;10828934;33;20043;-72
2022/04/12 07:33:25;;;;;;;5.82;3.47;;;13.90;74.20;;;;;;10827337;33;20023;-72
2022/04/12 07:39:26;;;;;;;8.60;4.40;;;14.00;74.10;;;;;;10814188;33;20042;-71
2022/04/12 07:45:28;;;;;;;5.10;3.25;;;14.00;73.80;;;;;;10826303;33;20046;-71
2022/04/12 07:51:31;;;;;;;7.60;3.17;;;14.10;73.70;;;;;;10827425;33;20020;-72
2022/04/12 07:57:33;;;;;;;4.97;3.22;;;14.20;73.60;;;;;;10827952;33;20059;-72
2022/04/12 08:03:36;;;;;;;7.03;4.05;;;14.20;72.80;;;;;;10811619;33;20020;-72
2022/04/12 08:09:38;;;;;;;7.20;3.87;;;14.20;73.20;;;;;;10827596;33;20062;-72
2022/04/12 08:15:41;;;;;;;8.50;3.72;;;14.20;73.40;;;;;;10821942;33;20058;-71
2022/04/12 08:21:43;;;;;;;11.50;6.65;;;14.30;73.10;;;;;;10827056;33;20063;-71
2022/04/12 08:27:47;;;;;;;5.28;3.08;;;14.50;73.00;;;;;;10823306;32;20308;-71
2022/04/12 08:33:50;;;;;;;14.18;4.47;;;14.50;72.90;;;;;;10824730;33;20322;-71
2022/04/12 08:39:52;;;;;;;4.00;1.92;;;14.50;72.60;;;;;;10823083;33;20028;-71
2022/04/12 08:45:55;;;;;;;7.53;3.45;;;14.50;73.00;;;;;;10822473;33;20050;-71
2022/04/12 08:52:01;;;;;;;7.20;2.37;;;14.70;72.20;;;;;;10822540;32;20312;-71
2022/04/12 08:58:03;;;;;;;13.32;4.20;;;14.70;72.10;;;;;;10825317;32;20059;-71
2022/04/12 09:04:05;;;;;;;1.98;1.60;;;14.60;71.90;;;;;;10825888;33;20024;-71
2022/04/12 09:10:08;;;;;;;9.35;3.47;;;14.80;72.00;;;;;;10825448;33;20312;-71
2022/04/12 09:16:10;;;;;;;9.10;2.97;;;15.10;70.90;;;;;;10484283;27;12583906;-71
2022/04/12 09:22:23;;;;;;;5.53;2.97;;;15.00;70.80;;;;;;10901937;32;20127;-71
2022/04/12 09:28:39;;;;;;;12.82;6.78;;;15.00;70.70;;;;;;10897024;32;20358;-72
2022/04/12 09:34:43;;;;;;;4.68;2.33;;;15.10;70.80;;;;;;10898665;32;20054;-71
2022/04/12 09:40:45;;;;;;;6.22;4.87;;;15.00;71.60;;;;;;10815478;32;20021;-71
2022/04/12 09:46:49;;;;;;;7.82;3.58;;;15.20;70.70;;;;;;10735645;33;20065;-71
2022/04/12 09:52:55;;;;;;;6.87;5.20;;;15.40;70.90;;;;;;10747963;32;20043;-71
2022/04/12 09:58:59;;;;;;;9.55;7.07;;;15.50;69.50;;;;;;10749805;33;20032;-71
2022/04/12 10:05:03;;;;;;;9.52;5.53;;;15.70;69.70;;;;;;10760904;32;20067;-72
2022/04/12 10:11:08;;;;;;;4.05;2.47;;;15.70;69.70;;;;;;10778881;33;20136;-71
2022/04/12 10:17:12;;;;;;;7.55;4.90;;;15.90;69.70;;;;;;10790088;32;20092;-71
2022/04/12 10:23:23;;;;;;;9.73;6.35;;;16.20;69.50;;;;;;10812711;33;20032;-71
2022/04/12 10:29:26;;;;;;;7.30;4.80;;;16.40;68.30;;;;;;10820085;33;20027;-71
2022/04/12 10:36:06;;;;;;;4.05;3.00;;;16.60;66.90;;;;;;10829836;33;20442;-71
2022/04/12 10:42:11;;;;;;;5.72;4.30;;;16.80;67.10;;;;;;10829800;33;20020;-71
2022/04/12 10:48:41;;;;;;;4.97;2.85;;;16.90;66.60;;;;;;10830169;33;20074;-71
2022/04/12 10:54:46;;;;;;;7.07;3.33;;;17.20;66.00;;;;;;10825710;33;20016;-72
2022/04/12 11:00:48;;;;;;;4.35;3.35;;;17.10;65.80;;;;;;10828351;33;20051;-72
2022/04/12 11:06:58;;;;;;;8.43;3.83;;;17.10;66.20;;;;;;10828245;33;20020;-71
2022/04/12 11:13:10;;;;;;;4.12;2.62;;;17.50;65.80;;;;;;10824700;33;20047;-71
2022/04/12 11:19:21;;;;;;;5.78;2.58;;;17.90;63.10;;;;;;10897373;32;20054;-71
2022/04/12 11:25:26;;;;;;;2.35;1.85;;;18.30;63.30;;;;;;10792107;33;20090;-71
2022/04/12 11:31:28;;;;;;;3.65;2.20;;;18.90;63.30;;;;;;10790706;33;20043;-71
2022/04/12 11:37:38;;;;;;;2.28;1.65;;;19.30;63.10;;;;;;10791951;33;20040;-71
2022/04/12 11:43:41;;;;;;;7.95;4.45;;;19.70;62.00;;;;;;10791836;33;20024;-71
2022/04/12 11:49:55;;;;;;;4.70;2.03;;;19.90;61.30;;;;;;10790767;33;20055;-71
2022/04/12 11:56:02;;;;;;;4.07;2.90;;;19.90;59.70;;;;;;10788709;33;20020;-72
2022/04/12 12:02:06;;;;;;;7.15;2.58;;;20.00;59.90;;;;;;10786882;33;20033;-72
2022/04/12 12:08:17;;;;;;;2.22;1.45;;;19.90;59.80;;;;;;10806486;33;20056;-71
2022/04/12 12:14:21;;;;;;;3.55;2.47;;;20.10;59.20;;;;;;10790541;33;20047;-71
2022/04/12 12:20:24;;;;;;;2.33;2.03;;;20.30;58.00;;;;;;10786820;33;20079;-71
2022/04/12 12:26:28;;;;;;;3.28;1.83;;;20.30;57.10;;;;;;10786033;33;20047;-71
2022/04/12 12:32:36;;;;;;;3.05;1.87;;;20.30;57.50;;;;;;10789346;33;20039;-71
2022/04/12 12:38:43;;;;;;;5.10;2.60;;;20.50;57.50;;;;;;10786142;33;20332;-71
2022/04/12 12:44:45;;;;;;;7.90;4.15;;;20.80;57.10;;;;;;10789973;33;20150;-71
2022/04/12 12:51:04;;;;;;;5.15;2.50;;;20.80;57.20;;;;;;10789083;33;20029;-72
2022/04/12 12:57:09;;;;;;;3.22;1.83;;;20.80;56.70;;;;;;10788811;33;20033;-72
2022/04/12 13:03:13;;;;;;;2.60;1.50;;;21.00;57.00;;;;;;10795641;33;20071;-71
2022/04/12 13:09:22;;;;;;;7.50;3.85;;;21.10;56.60;;;;;;10825243;33;20024;-72
2022/04/12 13:15:25;;;;;;;2.33;1.73;;;20.90;55.50;;;;;;10825046;33;20032;-72
2022/04/12 13:21:26;;;;;;;3.30;1.65;;;20.50;56.50;;;;;;10824856;33;20040;-72
2022/04/12 13:27:29;;;;;;;4.05;2.22;;;20.50;56.80;;;;;;10822430;33;20020;-71
2022/04/12 13:33:31;;;;;;;2.80;1.65;;;20.70;55.60;;;;;;10798115;33;20065;-71
2022/04/12 13:39:34;;;;;;;4.82;2.80;;;20.40;56.30;;;;;;10786179;33;20060;-71
2022/04/12 13:45:39;;;;;;;3.97;2.60;;;20.40;56.00;;;;;;10789308;33;20062;-71
2022/04/12 13:51:42;;;;;;;7.87;3.25;;;20.40;56.40;;;;;;10790148;33;20028;-71
2022/04/12 13:57:45;;;;;;;3.67;1.85;;;20.80;55.40;;;;;;10824655;33;20097;-71
2022/04/12 14:03:48;;;;;;;6.30;2.72;;;21.00;56.00;;;;;;10819001;32;20078;-71
2022/04/12 14:09:50;;;;;;;2.30;1.62;;;21.50;55.50;;;;;;10813330;33;20040;-71
2022/04/12 14:15:53;;;;;;;1.75;1.45;;;21.70;55.00;;;;;;10827761;33;20024;-71
2022/04/12 14:21:55;;;;;;;6.87;2.20;;;21.80;54.20;;;;;;10826029;33;20378;-71
2022/04/12 14:27:57;;;;;;;4.82;2.70;;;22.00;53.40;;;;;;10826454;32;20442;-71
2022/04/12 14:34:00;;;;;;;2.83;1.92;;;21.80;52.60;;;;;;10825750;33;20032;-71
2022/04/12 14:40:04;;;;;;;8.70;2.75;;;21.80;52.30;;;;;;10829490;33;20031;-71
2022/04/12 14:46:06;;;;;;;4.62;1.70;;;21.90;51.60;;;;;;10812765;33;20300;-71
2022/04/12 14:52:09;;;;;;;7.50;3.55;;;22.00;51.60;;;;;;10824027;33;20032;-70
2022/04/12 14:58:12;;;;;;;5.65;1.48;;;22.40;51.50;;;;;;10823841;32;20285;-71
2022/04/12 15:04:15;;;;;;;2.95;1.77;;;22.50;51.20;;;;;;10823203;33;20370;-71
2022/04/12 15:10:18;;;;;;;6.62;1.73;;;22.70;51.90;;;;;;10824463;33;20050;-71
2022/04/12 15:16:20;;;;;;;5.25;2.40;;;22.80;50.50;;;;;;10824301;33;20392;-71
2022/04/12 15:22:22;;;;;;;6.18;1.98;;;22.90;51.30;;;;;;10826270;33;20023;-71
2022/04/12 15:28:24;;;;;;;12.55;2.33;;;22.90;51.00;;;;;;10813255;33;20082;-71
2022/04/12 15:34:41;;;;;;;4.18;1.83;;;22.80;50.50;;;;;;10822617;33;20024;-71
2022/04/12 15:40:43;;;;;;;4.30;1.83;;;22.80;51.30;;;;;;10810907;33;20065;-71
2022/04/12 15:46:45;;;;;;;3.50;1.80;;;22.80;50.90;;;;;;10827032;33;20028;-71
2022/04/12 15:52:48;;;;;;;3.05;1.55;;;22.90;50.00;;;;;;10822673;33;20396;-71
2022/04/12 15:58:50;;;;;;;6.43;2.10;;;23.20;49.50;;;;;;10826362;33;20035;-71
2022/04/12 16:05:05;;;;;;;3.45;1.90;;;23.50;49.20;;;;;;10826563;32;20051;-70
2022/04/12 16:11:08;;;;;;;3.92;1.60;;;23.50;49.90;;;;;;10824925;33;20040;-71
2022/04/12 16:17:11;;;;;;;3.10;1.90;;;23.50;50.60;;;;;;10826381;33;20019;-71
2022/04/12 16:23:14;;;;;;;5.68;2.75;;;24.00;49.70;;;;;;10809094;33;20446;-71
2022/04/12 16:29:16;;;;;;;5.85;2.72;;;23.90;49.60;;;;;;10821856;33;20020;-71
2022/04/12 16:35:21;;;;;;;7.87;2.75;;;23.80;49.70;;;;;;10823821;33;20347;-71
2022/04/12 16:41:23;;;;;;;4.32;2.03;;;23.70;49.90;;;;;;10824279;33;20359;-71
2022/04/12 16:47:25;;;;;;;7.57;2.40;;;23.40;50.80;;;;;;10822107;33;20028;-71
2022/04/12 16:53:28;;;;;;;2.62;1.60;;;23.30;51.10;;;;;;10825997;33;20024;-71
2022/04/12 16:59:46;;;;;;;4.45;1.77;;;23.30;51.60;;;;;;10823174;33;20105;-71
2022/04/12 17:05:48;;;;;;;4.22;1.85;;;23.00;52.20;;;;;;10821318;33;20024;-71
2022/04/12 17:12:31;;;;;;;2.60;1.58;;;22.60;52.90;;;;;;10825106;33;20050;-71
2022/04/12 17:18:33;;;;;;;5.00;2.28;;;22.40;53.80;;;;;;10937249;32;20124;-71
2022/04/12 17:24:35;;;;;;;3.47;1.80;;;21.90;54.70;;;;;;10939409;32;20054;-71
2022/04/12 17:30:37;;;;;;;4.87;3.40;;;21.60;55.50;;;;;;10938753;32;20035;-71
2022/04/12 17:36:42;;;;;;;7.25;3.35;;;21.10;56.10;;;;;;10937361;32;20031;-71
2022/04/12 17:42:44;;;;;;;3.80;2.22;;;20.80;56.50;;;;;;10938454;32;20089;-71
2022/04/12 17:48:46;;;;;;;4.90;2.80;;;20.70;56.30;;;;;;10941577;32;20027;-71
2022/04/12 17:54:49;;;;;;;3.75;2.03;;;20.50;56.50;;;;;;10928974;32;20054;-71
2022/04/12 18:00:51;;;;;;;2.47;1.75;;;20.10;57.10;;;;;;10902185;32;20392;-71
2022/04/12 18:06:54;;;;;;;4.80;2.65;;;19.70;58.20;;;;;;10889410;32;20061;-71
2022/04/12 18:12:56;;;;;;;4.10;2.22;;;19.50;58.00;;;;;;10902146;32;20024;-71
2022/04/12 18:19:00;;;;;;;3.10;2.03;;;19.30;58.70;;;;;;10909484;32;20053;-71
2022/04/12 18:25:03;;;;;;;7.60;2.53;;;19.30;59.00;;;;;;10940159;32;20050;-71
2022/04/12 18:31:05;;;;;;;2.95;1.90;;;19.30;59.00;;;;;;10930604;32;20049;-71
2022/04/12 18:37:08;;;;;;;5.10;2.90;;;19.20;59.30;;;;;;10947326;32;20019;-71
2022/04/12 18:43:10;;;;;;;5.35;3.05;;;19.10;59.50;;;;;;10946977;32;20387;-71
2022/04/12 18:49:12;;;;;;;5.72;2.78;;;19.00;59.60;;;;;;10944364;32;20053;-71
2022/04/12 18:55:16;;;;;;;3.55;2.00;;;18.90;59.90;;;;;;10946829;32;20059;-71
2022/04/12 19:01:18;;;;;;;6.90;3.30;;;18.90;60.20;;;;;;10915741;32;20422;-71
2022/04/12 19:07:23;;;;;;;4.62;2.70;;;18.80;60.40;;;;;;10905739;32;20016;-71
2022/04/12 19:14:20;;;;;;;5.12;3.72;;;18.70;60.50;;;;;;10906433;32;20063;-71
2022/04/12 19:20:16;;;;;;;4.50;2.95;;;18.70;60.80;;;;;;10903402;32;20059;-71
2022/04/12 19:26:19;;;;;;;12.85;5.57;;;18.60;61.00;;;;;;10905215;32;20038;-71
2022/04/12 19:32:20;;;;;;;9.45;4.68;;;18.40;61.40;;;;;;10905371;32;20042;-71
2022/04/12 19:38:23;;;;;;;7.28;4.18;;;18.30;61.80;;;;;;10904856;32;20058;-71
2022/04/12 19:44:25;;;;;;;3.85;3.05;;;18.30;62.10;;;;;;10890878;32;20051;-71
2022/04/12 19:50:27;;;;;;;5.82;3.58;;;18.30;62.10;;;;;;10895211;32;20027;-71
2022/04/12 19:56:29;;;;;;;5.82;3.15;;;18.00;62.70;;;;;;10908635;32;20019;-71
2022/04/12 20:02:32;;;;;;;6.35;3.97;;;18.10;62.70;;;;;;10905719;32;20450;-71
2022/04/12 20:08:37;;;;;;;7.28;3.70;;;18.10;62.50;;;;;;10907783;32;20020;-71
2022/04/12 20:14:39;;;;;;;4.80;3.25;;;18.10;63.10;;;;;;10905885;32;20014;-71
2022/04/12 20:20:42;;;;;;;7.03;4.68;;;18.00;63.20;;;;;;10894371;32;20296;-71
2022/04/12 20:26:44;;;;;;;5.93;4.25;;;18.00;63.60;;;;;;10894096;32;20046;-71
2022/04/12 20:32:47;;;;;;;5.12;4.03;;;17.80;63.70;;;;;;10907413;32;20311;-71
2022/04/12 20:38:49;;;;;;;7.25;5.20;;;17.80;64.10;;;;;;10907077;32;20030;-71
2022/04/12 20:44:52;;;;;;;8.88;5.43;;;17.80;64.20;;;;;;10906763;32;20019;-71
2022/04/12 20:50:55;;;;;;;14.75;9.40;;;17.80;64.10;;;;;;10902537;32;20036;-71
2022/04/12 20:56:58;;;;;;;14.13;7.70;;;17.70;64.20;;;;;;10892725;32;20011;-71
2022/04/12 21:03:01;;;;;;;10.88;7.75;;;17.70;64.70;;;;;;10906273;32;20359;-71
2022/04/12 21:09:03;;;;;;;15.50;9.32;;;17.60;64.70;;;;;;10906454;32;20012;-71
2022/04/12 21:15:25;;;;;;;12.55;9.05;;;17.50;64.70;;;;;;10906263;32;20051;-71
2022/04/12 21:21:27;;;;;;;6.85;4.50;;;17.50;65.20;;;;;;10906135;32;20019;-71
2022/04/12 21:27:30;;;;;;;8.75;5.37;;;17.30;65.10;;;;;;10902964;32;20185;-71
2022/04/12 21:33:32;;;;;;;11.52;7.82;;;17.20;66.10;;;;;;10906030;32;20097;-71
2022/04/12 21:39:34;;;;;;;11.98;8.40;;;17.20;66.50;;;;;;10905222;32;20054;-71
2022/04/12 21:45:37;;;;;;;8.57;6.40;;;17.20;67.20;;;;;;10904077;32;20328;-71
2022/04/12 21:52:08;;;;;;;10.52;6.70;;;17.10;67.00;;;;;;10906705;32;20031;-71
2022/04/12 21:58:13;;;;;;;8.48;6.95;;;17.00;66.80;;;;;;10905461;32;20335;-71
2022/04/12 22:04:15;;;;;;;12.60;8.43;;;16.80;66.90;;;;;;10891325;32;20051;-71
2022/04/12 22:10:20;;;;;;;11.65;6.93;;;16.80;66.80;;;;;;10909488;32;20020;-71
2022/04/12 22:16:22;;;;;;;8.77;5.57;;;16.70;66.70;;;;;;10908100;32;20037;-70
2022/04/12 22:22:28;;;;;;;7.22;5.87;;;16.70;66.70;;;;;;10896946;32;20024;-70
2022/04/12 22:28:30;;;;;;;7.82;5.70;;;16.70;67.40;;;;;;10910542;32;20030;-70
2022/04/12 22:34:32;;;;;;;11.18;6.62;;;16.60;68.00;;;;;;10910449;32;20016;-70
2022/04/12 22:40:35;;;;;;;9.80;7.28;;;16.60;68.00;;;;;;10908546;32;20031;-69
2022/04/12 22:46:38;;;;;;;9.82;6.65;;;16.50;68.10;;;;;;10909947;32;20388;-70
2022/04/12 22:52:40;;;;;;;8.85;7.43;;;16.50;68.60;;;;;;10896446;32;20379;-70
2022/04/12 22:58:42;;;;;;;16.52;5.93;;;16.30;68.40;;;;;;10905378;32;20054;-70
2022/04/12 23:04:53;;;;;;;9.25;7.20;;;16.20;68.20;;;;;;10906568;32;20057;-70
2022/04/12 23:10:55;;;;;;;8.02;5.65;;;16.00;68.50;;;;;;10909078;32;20011;-70
2022/04/12 23:16:57;;;;;;;9.00;6.85;;;15.90;68.80;;;;;;10908221;32;20023;-70
2022/04/12 23:22:59;;;;;;;11.40;7.30;;;16.00;68.80;;;;;;10893594;32;20027;-70
2022/04/12 23:35:26;;;;;;;10.40;8.00;;;16.20;68.70;;;;;;10908350;32;20437;-70
2022/04/12 23:41:28;;;;;;;10.68;8.30;;;16.20;68.60;;;;;;10907901;32;20040;-70
2022/04/12 23:47:31;;;;;;;11.68;8.40;;;15.90;69.00;;;;;;10905913;32;20023;-70
2022/04/12 23:53:33;;;;;;;10.77;8.15;;;15.90;69.00;;;;;;10907597;32;20027;-70
